createdAt,value
2018-10-05T00:00:30.163Z,18.77
2018-10-05T00:02:59.019Z,18.03
2018-10-05T00:05:27.806Z,18.33
2018-10-05T00:07:56.578Z,19.00
2018-10-05T00:10:26.007Z,19.73
2018-10-05T00:12:55.031Z,18.57
2018-10-05T00:15:23.785Z,17.00
2018-10-05T00:17:52.676Z,15.93
2018-10-05T00:20:22.176Z,17.50
2018-10-05T00:22:51.371Z,17.00
2018-10-05T00:25:20.471Z,16.30
2018-10-05T00:27:49.224Z,15.30
2018-10-05T00:30:17.976Z,15.20
2018-10-05T00:32:48.311Z,16.80
2018-10-05T00:35:17.182Z,15.67
2018-10-05T00:37:46.070Z,16.27
2018-10-05T00:40:15.032Z,16.63
2018-10-05T00:42:43.927Z,15.97
2018-10-05T00:45:12.677Z,16.90
2018-10-05T00:47:41.669Z,16.23
2018-10-05T00:50:10.877Z,16.23
2018-10-05T00:52:39.835Z,16.63
2018-10-05T00:55:09.623Z,15.17
2018-10-05T00:57:38.591Z,15.53
2018-10-05T01:00:07.793Z,15.47
2018-10-05T01:02:36.649Z,15.33
2018-10-05T01:05:05.532Z,15.67
2018-10-05T01:07:34.492Z,14.60
2018-10-05T01:10:03.316Z,14.67
2018-10-05T01:12:32.221Z,15.90
2018-10-05T01:15:01.120Z,14.70
2018-10-05T01:17:30.242Z,15.53
2018-10-05T01:19:59.179Z,15.57
2018-10-05T01:22:28.041Z,14.90
2018-10-05T01:24:57.098Z,15.30
2018-10-05T01:27:26.007Z,14.40
2018-10-05T01:29:54.949Z,16.10
2018-10-05T01:32:23.781Z,15.23
2018-10-05T01:34:52.572Z,15.97
2018-10-05T01:37:21.655Z,15.60
2018-10-05T01:39:51.877Z,16.50
2018-10-05T01:42:20.863Z,17.83
2018-10-05T01:44:49.789Z,17.53
2018-10-05T01:47:18.686Z,17.13
2018-10-05T01:49:47.559Z,16.27
2018-10-05T01:52:16.414Z,16.67
2018-10-05T01:54:45.439Z,16.80
2018-10-05T01:57:15.406Z,16.73
2018-10-05T01:59:44.468Z,15.73
2018-10-05T02:02:13.420Z,15.67
2018-10-05T02:04:42.571Z,16.67
2018-10-05T02:07:11.610Z,16.57
2018-10-05T02:09:40.527Z,17.30
2018-10-05T02:12:09.485Z,16.80
2018-10-05T02:14:38.241Z,17.70
2018-10-05T02:17:07.136Z,16.97
2018-10-05T02:19:36.036Z,17.53
2018-10-05T02:22:04.940Z,17.57
2018-10-05T02:24:33.837Z,17.83
2018-10-05T02:27:02.670Z,18.07
2018-10-05T02:29:31.556Z,17.67
2018-10-05T02:32:00.426Z,17.80
2018-10-05T02:34:29.213Z,18.27
2018-10-05T02:36:58.005Z,18.27
2018-10-05T02:39:26.881Z,19.50
2018-10-05T02:41:56.448Z,19.93
2018-10-05T02:44:26.540Z,19.23
2018-10-05T02:46:55.348Z,17.93
2018-10-05T02:49:24.142Z,18.70
2018-10-05T02:51:52.998Z,18.20
2018-10-05T02:54:22.249Z,17.33
2018-10-05T02:56:51.000Z,17.47
2018-10-05T02:59:20.887Z,18.20
2018-10-05T03:02:00.733Z,18.30
2018-10-05T03:07:02.013Z,17.47
2018-10-05T03:09:31.809Z,18.90
2018-10-05T03:12:00.587Z,19.03
2018-10-05T03:14:29.788Z,17.60
2018-10-05T03:16:59.205Z,18.30
2018-10-05T03:19:28.083Z,20.13
2018-10-05T03:21:56.957Z,23.30
2018-10-05T03:24:25.734Z,22.10
2018-10-05T03:26:54.548Z,24.47
2018-10-05T03:29:23.461Z,22.23
2018-10-05T03:31:52.190Z,20.43
2018-10-05T03:34:20.940Z,20.97
2018-10-05T03:36:49.934Z,19.43
2018-10-05T03:39:18.536Z,20.27
2018-10-05T03:41:47.431Z,20.70
2018-10-05T03:44:16.282Z,22.87
2018-10-05T03:46:44.870Z,21.13
2018-10-05T03:49:13.898Z,22.60
2018-10-05T03:51:42.608Z,22.33
2018-10-05T03:54:11.251Z,23.80
2018-10-05T03:56:40.474Z,23.77
2018-10-05T03:59:09.173Z,21.50
2018-10-05T04:01:37.860Z,23.00
2018-10-05T04:04:06.708Z,22.43
2018-10-05T04:06:35.405Z,22.27
2018-10-05T04:09:05.358Z,22.30
2018-10-05T04:11:34.244Z,21.53
2018-10-05T04:14:03.554Z,21.20
2018-10-05T04:16:32.409Z,21.47
2018-10-05T04:19:01.316Z,23.10
2018-10-05T04:21:30.027Z,21.73
2018-10-05T04:23:58.757Z,21.13
2018-10-05T04:26:27.426Z,23.05
2018-10-05T04:28:56.165Z,19.77
2018-10-05T04:31:25.072Z,18.77
2018-10-05T04:33:53.790Z,18.43
2018-10-05T04:36:23.331Z,17.40
2018-10-05T04:38:52.494Z,17.77
2018-10-05T04:41:21.474Z,17.90
2018-10-05T04:43:50.407Z,19.23
2018-10-05T04:46:19.143Z,19.83
2018-10-05T04:48:47.804Z,19.27
2018-10-05T04:51:17.394Z,21.43
2018-10-05T04:53:46.179Z,21.83
2018-10-05T04:56:14.986Z,24.23
2018-10-05T04:58:43.722Z,23.23
2018-10-05T05:01:12.453Z,21.27
2018-10-05T05:03:41.565Z,23.27
2018-10-05T05:06:10.437Z,22.73
2018-10-05T05:08:39.676Z,26.03
2018-10-05T05:11:08.707Z,26.50
2018-10-05T05:13:37.947Z,25.97
2018-10-05T05:16:06.829Z,27.57
2018-10-05T05:18:35.734Z,23.13
2018-10-05T05:21:06.255Z,20.40
2018-10-05T05:23:37.195Z,20.00
2018-10-05T05:26:08.358Z,18.73
2018-10-05T05:28:39.448Z,18.27
2018-10-05T05:31:11.663Z,17.73
2018-10-05T05:33:43.337Z,18.00
2018-10-05T05:36:24.472Z,18.53
2018-10-05T05:38:58.073Z,18.20
2018-10-05T05:41:28.827Z,18.50
2018-10-05T05:43:58.911Z,17.40
2018-10-05T05:46:31.936Z,17.50
2018-10-05T05:49:03.048Z,18.00
2018-10-05T05:51:32.412Z,16.60
2018-10-05T05:54:01.845Z,17.87
2018-10-05T05:56:39.107Z,17.07
2018-10-05T05:59:13.953Z,17.43
2018-10-05T06:01:48.295Z,16.73
2018-10-05T06:04:32.123Z,17.82
2018-10-05T06:07:01.577Z,17.17
2018-10-05T06:09:31.942Z,17.00
2018-10-05T06:12:04.788Z,17.60
2018-10-05T06:14:40.677Z,17.17
2018-10-05T06:17:11.122Z,16.87
2018-10-05T06:19:45.292Z,16.43
2018-10-05T06:22:17.367Z,17.80
2018-10-05T06:24:47.194Z,16.30
2018-10-05T06:27:16.995Z,16.63
2018-10-05T06:29:46.433Z,16.43
2018-10-05T06:32:17.855Z,16.40
2018-10-05T06:34:49.774Z,16.53
2018-10-05T06:37:19.568Z,15.87
2018-10-05T06:39:51.794Z,15.43
2018-10-05T06:42:23.512Z,16.20
2018-10-05T06:44:53.234Z,15.63
2018-10-05T06:47:25.223Z,15.53
2018-10-05T06:49:56.238Z,15.90
2018-10-05T06:52:26.416Z,15.20
2018-10-05T06:55:02.324Z,15.33
2018-10-05T06:57:32.825Z,15.23
2018-10-05T07:00:11.466Z,15.40
2018-10-05T07:02:42.692Z,15.17
2018-10-05T07:05:21.735Z,14.73
2018-10-05T07:07:55.037Z,14.77
2018-10-05T07:10:26.437Z,15.33
2018-10-05T07:12:57.367Z,14.73
2018-10-05T07:15:27.673Z,14.43
2018-10-05T07:18:01.551Z,15.30
2018-10-05T07:20:35.166Z,15.63
2018-10-05T07:23:10.981Z,14.30
2018-10-05T07:25:43.537Z,14.30
2018-10-05T07:28:14.390Z,14.27
2018-10-05T07:30:43.718Z,14.47
2018-10-05T07:33:18.430Z,13.50
2018-10-05T07:35:48.832Z,14.33
2018-10-05T07:38:18.714Z,14.00
2018-10-05T07:40:48.193Z,13.83
2018-10-05T07:43:18.991Z,13.73
2018-10-05T07:45:51.592Z,13.53
2018-10-05T07:48:26.482Z,13.80
2018-10-05T07:50:56.194Z,13.63
2018-10-05T07:53:29.989Z,14.23
2018-10-05T07:55:59.671Z,14.53
2018-10-05T07:58:35.657Z,13.83
2018-10-05T08:01:08.613Z,14.00
2018-10-05T08:03:39.324Z,13.57
2018-10-05T08:06:13.132Z,13.97
2018-10-05T08:08:46.950Z,13.57
2018-10-05T08:11:15.984Z,14.07
2018-10-05T08:13:46.777Z,12.90
2018-10-05T08:16:17.153Z,14.10
2018-10-05T08:18:46.648Z,14.53
2018-10-05T08:21:17.397Z,13.63
2018-10-05T08:23:47.393Z,13.33
2018-10-05T08:26:25.637Z,13.00
2018-10-05T08:28:54.967Z,14.07
2018-10-05T08:31:25.229Z,13.40
2018-10-05T08:33:54.258Z,13.48
2018-10-05T08:36:24.844Z,12.67
2018-10-05T08:38:59.177Z,12.83
2018-10-05T08:41:38.952Z,12.97
2018-10-05T08:44:11.565Z,12.83
2018-10-05T08:46:44.737Z,12.25
2018-10-05T08:49:20.752Z,12.80
2018-10-05T08:51:51.958Z,12.37
2018-10-05T08:54:27.560Z,12.10
2018-10-05T08:56:57.064Z,12.83
2018-10-05T08:59:27.760Z,12.30
2018-10-05T09:04:43.577Z,12.77
2018-10-05T09:07:13.467Z,12.53
2018-10-05T09:09:49.956Z,12.80
2018-10-05T09:12:21.548Z,12.10
2018-10-05T09:14:51.399Z,13.40
2018-10-05T09:17:23.929Z,13.47
2018-10-05T09:19:54.835Z,12.97
2018-10-05T09:22:32.992Z,11.90
2018-10-05T09:25:03.641Z,11.83
2018-10-05T09:27:32.745Z,12.30
2018-10-05T09:30:02.394Z,12.30
2018-10-05T09:32:32.089Z,11.33
2018-10-05T09:35:04.166Z,12.43
2018-10-05T09:37:34.029Z,12.07
2018-10-05T09:40:11.745Z,12.43
2018-10-05T09:42:42.686Z,12.03
2018-10-05T09:45:15.719Z,11.43
2018-10-05T09:47:45.868Z,12.17
2018-10-05T09:50:15.151Z,12.43
2018-10-05T09:52:45.668Z,12.20
2018-10-05T09:55:18.054Z,11.53
2018-10-05T09:57:47.132Z,11.60
2018-10-05T10:00:23.705Z,11.60
2018-10-05T10:02:58.666Z,12.33
2018-10-05T10:05:27.543Z,12.17
2018-10-05T10:07:59.631Z,11.70
2018-10-05T10:10:28.643Z,11.67
2018-10-05T10:12:59.098Z,12.00
2018-10-05T10:15:40.062Z,11.33
2018-10-05T10:18:11.311Z,10.93
2018-10-05T10:20:46.292Z,11.95
2018-10-05T10:23:15.258Z,12.30
2018-10-05T10:25:44.169Z,10.17
2018-10-05T10:28:19.241Z,10.97
2018-10-05T10:30:48.496Z,11.80
2018-10-05T10:33:18.124Z,11.23
2018-10-05T10:35:58.283Z,11.20
2018-10-05T10:38:28.494Z,11.43
2018-10-05T10:41:01.660Z,10.40
2018-10-05T10:43:31.335Z,10.80
2018-10-05T10:46:07.548Z,9.50
2018-10-05T10:48:38.537Z,9.77
2018-10-05T10:51:11.623Z,11.37
2018-10-05T10:53:47.980Z,11.53
2018-10-05T10:56:22.222Z,10.50
2018-10-05T10:58:51.628Z,10.20
2018-10-05T11:01:21.336Z,10.20
2018-10-05T11:03:56.098Z,10.33
2018-10-05T11:06:25.699Z,10.03
2018-10-05T11:08:55.270Z,9.40
2018-10-05T11:11:28.672Z,11.27
2018-10-05T11:13:58.192Z,10.60
2018-10-05T11:16:30.234Z,11.60
2018-10-05T11:19:00.018Z,10.70
2018-10-05T11:21:29.424Z,9.90
2018-10-05T11:24:06.031Z,10.33
2018-10-05T11:26:35.133Z,9.83
2018-10-05T11:29:04.872Z,8.93
2018-10-05T11:31:41.123Z,10.27
2018-10-05T11:34:11.292Z,10.80
2018-10-05T11:36:40.410Z,9.07
2018-10-05T11:39:10.653Z,9.23
2018-10-05T11:41:42.667Z,9.43
2018-10-05T11:44:14.096Z,9.33
2018-10-05T11:46:44.320Z,8.80
2018-10-05T11:49:13.205Z,8.70
2018-10-05T11:51:43.239Z,8.70
2018-10-05T11:54:12.210Z,8.13
2018-10-05T11:56:44.003Z,9.30
2018-10-05T11:59:14.127Z,8.90
2018-10-05T12:01:49.560Z,9.07
2018-10-05T12:04:18.357Z,8.40
2018-10-05T12:06:49.885Z,8.50
2018-10-05T12:09:20.209Z,8.57
2018-10-05T12:14:43.615Z,7.57
2018-10-05T12:17:12.770Z,7.23
2018-10-05T12:19:44.095Z,7.53
2018-10-05T12:22:14.167Z,7.50
2018-10-05T12:24:48.242Z,7.57
2018-10-05T12:27:22.337Z,7.57
2018-10-05T12:29:51.498Z,7.17
2018-10-05T12:32:26.855Z,7.77
2018-10-05T12:35:01.886Z,7.10
2018-10-05T12:37:31.059Z,6.73
2018-10-05T12:40:02.328Z,6.87
2018-10-05T12:42:36.064Z,7.20
2018-10-05T12:45:08.573Z,7.93
2018-10-05T12:47:40.398Z,7.50
2018-10-05T12:52:59.330Z,6.43
2018-10-05T12:55:28.781Z,7.57
2018-10-05T12:58:02.191Z,7.30
2018-10-05T13:00:34.852Z,7.33
2018-10-05T13:03:03.709Z,7.30
2018-10-05T13:05:34.280Z,5.87
2018-10-05T13:08:09.358Z,5.77
2018-10-05T13:10:41.048Z,6.63
2018-10-05T13:13:10.102Z,5.43
2018-10-05T13:15:43.306Z,4.80
2018-10-05T13:18:14.737Z,4.73
2018-10-05T13:20:44.111Z,5.03
2018-10-05T13:23:14.217Z,5.20
2018-10-05T13:25:43.389Z,5.97
2018-10-05T13:28:13.803Z,6.23
2018-10-05T13:30:45.837Z,5.30
2018-10-05T13:33:16.221Z,4.83
2018-10-05T13:35:47.641Z,4.17
2018-10-05T13:38:22.349Z,3.63
2018-10-05T13:40:51.207Z,4.07
2018-10-05T13:43:22.986Z,3.60
2018-10-05T13:45:51.905Z,4.50
2018-10-05T13:48:26.119Z,3.93
2018-10-05T13:50:55.219Z,4.03
2018-10-05T13:53:25.226Z,3.80
2018-10-05T13:55:55.477Z,4.00
2018-10-05T13:58:26.175Z,4.10
2018-10-05T14:00:55.097Z,3.43
2018-10-05T14:03:25.289Z,3.67
2018-10-05T14:05:54.153Z,2.93
2018-10-05T14:08:23.179Z,3.10
2018-10-05T14:10:53.247Z,3.33
2018-10-05T14:13:22.708Z,3.00
2018-10-05T14:15:59.884Z,3.10
2018-10-05T14:18:29.177Z,3.77
2018-10-05T14:21:03.330Z,4.07
2018-10-05T14:23:32.174Z,3.30
2018-10-05T14:26:01.067Z,3.73
2018-10-05T14:28:36.253Z,3.40
2018-10-05T14:31:06.240Z,3.30
2018-10-05T14:33:43.061Z,3.77
2018-10-05T14:36:19.114Z,3.53
2018-10-05T14:38:48.548Z,3.60
2018-10-05T14:41:18.412Z,3.63
2018-10-05T14:43:48.732Z,3.53
2018-10-05T14:46:20.448Z,3.40
2018-10-05T14:48:49.248Z,3.70
2018-10-05T14:51:19.219Z,3.53
2018-10-05T14:53:48.729Z,2.90
2018-10-05T14:56:20.155Z,3.00
2018-10-05T14:58:49.281Z,3.00
2018-10-05T15:01:20.558Z,3.50
2018-10-05T15:03:55.226Z,2.90
2018-10-05T15:06:26.565Z,3.00
2018-10-05T15:09:00.939Z,2.83
2018-10-05T15:11:30.343Z,3.17
2018-10-05T15:13:59.926Z,3.43
2018-10-05T15:16:30.559Z,3.12
2018-10-05T15:19:04.059Z,2.93
2018-10-05T15:21:33.354Z,3.30
2018-10-05T15:24:05.167Z,3.43
2018-10-05T15:26:34.386Z,3.15
2018-10-05T15:29:04.309Z,2.83
2018-10-05T15:31:34.111Z,3.10
2018-10-05T15:34:04.417Z,2.90
2018-10-05T15:36:34.210Z,2.95
2018-10-05T15:39:08.889Z,3.00
2018-10-05T15:41:38.382Z,2.70
2018-10-05T15:44:10.021Z,2.97
2018-10-05T15:47:42.085Z,2.73
2018-10-05T15:50:11.381Z,2.73
2018-10-05T15:52:43.652Z,3.00
2018-10-05T15:55:17.555Z,2.67
2018-10-05T15:57:49.127Z,3.20
2018-10-05T16:00:20.515Z,2.67
2018-10-05T16:02:49.118Z,2.87
2018-10-05T16:05:18.052Z,2.80
2018-10-05T16:07:49.131Z,2.73
2018-10-05T16:10:22.053Z,2.67
2018-10-05T16:12:51.866Z,2.60
2018-10-05T16:15:30.045Z,2.30
2018-10-05T16:18:04.854Z,2.40
2018-10-05T16:20:36.139Z,2.62
2018-10-05T16:23:06.793Z,2.67
2018-10-05T16:25:36.334Z,2.60
2018-10-05T16:28:07.611Z,2.67
2018-10-05T16:30:36.716Z,2.57
2018-10-05T16:33:12.326Z,2.20
2018-10-05T16:35:44.087Z,2.70
2018-10-05T16:38:13.897Z,2.70
2018-10-05T16:40:43.813Z,2.80
2018-10-05T16:43:13.929Z,2.70
2018-10-05T16:45:44.380Z,2.87
2018-10-05T16:48:13.874Z,2.90
2018-10-05T16:50:59.987Z,3.00
2018-10-05T16:53:31.806Z,2.70
2018-10-05T16:56:01.173Z,3.40
2018-10-05T16:58:32.170Z,3.20
2018-10-05T17:01:00.815Z,3.13
2018-10-05T17:03:33.980Z,3.63
2018-10-05T17:06:05.011Z,3.10
2018-10-05T17:08:36.628Z,2.70
2018-10-05T17:11:05.983Z,3.30
2018-10-05T17:13:38.474Z,3.60
2018-10-05T17:16:08.067Z,3.70
2018-10-05T17:18:38.961Z,3.67
2018-10-05T17:21:09.458Z,3.50
2018-10-05T17:23:38.930Z,3.60
2018-10-05T17:26:09.198Z,4.00
2018-10-05T17:28:39.073Z,4.13
2018-10-05T17:31:09.229Z,4.07
2018-10-05T17:33:38.720Z,4.20
2018-10-05T17:36:07.809Z,4.00
2018-10-05T17:38:36.617Z,4.03
2018-10-05T17:41:05.266Z,4.10
2018-10-05T17:43:33.881Z,4.13
2018-10-05T17:46:03.100Z,3.90
2018-10-05T17:48:32.131Z,3.70
2018-10-05T17:51:00.896Z,4.20
2018-10-05T17:53:29.617Z,3.90
2018-10-05T17:55:58.252Z,4.03
2018-10-05T17:58:26.978Z,3.80
2018-10-05T18:00:56.060Z,3.50
2018-10-05T18:03:24.893Z,3.80
2018-10-05T18:05:53.650Z,3.80
2018-10-05T18:08:26.019Z,3.90
2018-10-05T18:10:54.931Z,4.30
2018-10-05T18:13:23.774Z,4.47
2018-10-05T18:15:52.665Z,4.83
2018-10-05T18:18:21.833Z,4.90
2018-10-05T18:20:52.111Z,4.93
2018-10-05T18:23:21.660Z,5.10
2018-10-05T18:25:50.367Z,5.00
2018-10-05T18:28:19.093Z,5.30
2018-10-05T18:30:47.829Z,4.70
2018-10-05T18:33:16.493Z,5.07
2018-10-05T18:35:45.354Z,4.97
2018-10-05T18:38:14.087Z,4.53
2018-10-05T18:40:42.991Z,4.43
2018-10-05T18:43:11.758Z,4.37
2018-10-05T18:45:41.149Z,4.67
2018-10-05T18:48:09.789Z,4.77
2018-10-05T18:50:38.388Z,5.00
2018-10-05T18:53:07.162Z,4.83
2018-10-05T18:55:35.736Z,5.17
2018-10-05T18:58:04.399Z,5.10
2018-10-05T19:00:33.178Z,5.43
2018-10-05T19:03:02.215Z,5.90
2018-10-05T19:05:31.212Z,5.30
2018-10-05T19:08:00.382Z,5.63
2018-10-05T19:10:30.324Z,5.90
2018-10-05T19:12:59.463Z,6.30
2018-10-05T19:15:29.077Z,6.03
2018-10-05T19:17:57.712Z,7.80
2018-10-05T19:20:26.412Z,7.60
2018-10-05T19:22:55.181Z,7.93
2018-10-05T19:25:23.841Z,8.27
2018-10-05T19:27:52.752Z,7.90
2018-10-05T19:30:21.494Z,8.23
2018-10-05T19:32:50.693Z,7.77
2018-10-05T19:35:19.836Z,8.57
2018-10-05T19:37:48.521Z,9.30
2018-10-05T19:40:17.372Z,8.47
2018-10-05T19:42:46.617Z,9.60
2018-10-05T19:45:15.384Z,10.20
2018-10-05T19:47:44.908Z,10.17
2018-10-05T19:50:13.526Z,10.53
2018-10-05T19:52:42.377Z,9.80
2018-10-05T19:55:11.095Z,9.27
2018-10-05T19:57:40.286Z,8.90
2018-10-05T20:00:08.959Z,9.80
2018-10-05T20:02:37.633Z,9.27
2018-10-05T20:05:06.375Z,9.93
2018-10-05T20:07:35.309Z,10.23
2018-10-05T20:10:04.270Z,10.07
2018-10-05T20:12:33.037Z,10.07
2018-10-05T20:15:01.789Z,9.97
2018-10-05T20:17:30.616Z,10.43
2018-10-05T20:19:59.218Z,11.70
2018-10-05T20:22:28.211Z,12.00
2018-10-05T20:24:57.421Z,11.67
2018-10-05T20:27:26.497Z,12.00
2018-10-05T20:29:55.465Z,12.00
2018-10-05T20:32:24.271Z,11.70
2018-10-05T20:34:53.162Z,11.40
2018-10-05T20:37:21.908Z,11.93
2018-10-05T20:39:51.132Z,12.63
2018-10-05T20:42:19.761Z,12.30
2018-10-05T20:44:48.564Z,12.33
2018-10-05T20:47:18.225Z,12.27
2018-10-05T20:49:47.180Z,12.37
2018-10-05T20:52:15.768Z,11.97
2018-10-05T20:54:45.427Z,11.57
2018-10-05T20:57:14.119Z,11.10
2018-10-05T20:59:42.837Z,12.23
2018-10-05T21:02:11.531Z,12.63
2018-10-05T21:04:40.245Z,12.97
2018-10-05T21:07:08.720Z,12.30
2018-10-05T21:09:37.408Z,12.47
2018-10-05T21:12:06.133Z,13.80
2018-10-05T21:14:35.518Z,14.50
2018-10-05T21:17:04.409Z,15.27
2018-10-05T21:19:36.719Z,15.17
2018-10-05T21:22:11.598Z,14.97
2018-10-05T21:24:40.955Z,14.45
2018-10-05T21:27:11.753Z,15.17
2018-10-05T21:29:41.983Z,15.67
2018-10-05T21:32:12.440Z,15.90
2018-10-05T21:34:42.850Z,14.93
2018-10-05T21:37:12.676Z,15.30
2018-10-05T21:39:43.448Z,16.80
2018-10-05T21:42:13.757Z,15.57
2018-10-05T21:44:43.543Z,14.80
2018-10-05T21:47:14.079Z,14.83
2018-10-05T21:49:44.570Z,15.63
2018-10-05T21:52:14.389Z,15.53
2018-10-05T21:54:43.575Z,15.87
2018-10-05T21:57:12.247Z,15.67
2018-10-05T21:59:47.513Z,16.50
2018-10-05T22:02:17.202Z,16.07
2018-10-05T22:04:47.385Z,15.57
2018-10-05T22:07:17.281Z,15.77
2018-10-05T22:09:47.115Z,16.30
2018-10-05T22:12:17.606Z,15.87
2018-10-05T22:14:48.016Z,15.47
2018-10-05T22:17:17.847Z,15.33
2018-10-05T22:19:48.639Z,14.33
2018-10-05T22:22:18.371Z,14.10
2018-10-05T22:24:48.457Z,15.43
2018-10-05T22:27:20.768Z,14.23
2018-10-05T22:29:51.045Z,14.10
2018-10-05T22:32:21.045Z,13.17
2018-10-05T22:34:52.050Z,14.57
2018-10-05T22:37:21.772Z,14.80
2018-10-05T22:39:51.793Z,14.40
2018-10-05T22:42:21.156Z,16.03
2018-10-05T22:44:50.056Z,17.23
2018-10-05T22:47:20.230Z,15.00
2018-10-05T22:49:49.955Z,16.67
2018-10-05T22:52:18.834Z,15.63
2018-10-05T22:54:47.912Z,16.77
2018-10-05T22:57:18.202Z,17.07
2018-10-05T22:59:50.462Z,15.97
2018-10-05T23:02:20.305Z,16.93
2018-10-05T23:04:49.366Z,16.97
2018-10-05T23:07:18.871Z,17.83
2018-10-05T23:09:49.394Z,17.67
2018-10-05T23:12:20.011Z,17.83
2018-10-05T23:14:50.288Z,16.83
2018-10-05T23:17:20.824Z,17.33
2018-10-05T23:19:50.369Z,17.63
2018-10-05T23:22:20.612Z,18.33
2018-10-05T23:24:51.126Z,18.30
2018-10-05T23:27:21.400Z,17.67
2018-10-05T23:29:53.027Z,17.40
2018-10-05T23:32:22.366Z,16.87
2018-10-05T23:34:51.876Z,16.37
2018-10-05T23:37:22.197Z,16.87
2018-10-05T23:39:52.911Z,16.27
2018-10-05T23:42:22.000Z,15.80
2018-10-05T23:44:51.303Z,15.30
2018-10-05T23:47:20.128Z,15.73
2018-10-05T23:49:49.252Z,15.07
2018-10-05T23:52:38.811Z,15.27
2018-10-05T23:55:08.137Z,15.03
2018-10-05T23:57:37.843Z,15.57
